sensor_id;sensor_type;location;lat;lon;timestamp;pressure;altitude;pressure_sealevel;temperature;humidity
61742;BME280;47650;49.848;9.620;2022-12-07T00:01:49;99683.97;;;4.44;72.22
61742;BME280;47650;49.848;9.620;2022-12-07T00:04:17;99690.59;;;4.63;72.54
61742;BME280;47650;49.848;9.620;2022-12-07T00:06:51;99687.88;;;4.64;71.68
61742;BME280;47650;49.848;9.620;2022-12-07T00:09:17;99693.44;;;4.73;71.88
61742;BME280;47650;49.848;9.620;2022-12-07T00:11:48;99683.13;;;4.69;72.16
61742;BME280;47650;49.848;9.620;2022-12-07T00:14:15;99638.38;;;4.32;71.64
61742;BME280;47650;49.848;9.620;2022-12-07T00:16:41;99691.53;;;4.75;71.41
61742;BME280;47650;49.848;9.620;2022-12-07T00:19:08;99683.44;;;4.78;70.94
61742;BME280;47650;49.848;9.620;2022-12-07T00:21:35;99676.41;;;4.78;71.08
61742;BME280;47650;49.848;9.620;2022-12-07T00:24:01;99671.56;;;4.85;71.16
61742;BME280;47650;49.848;9.620;2022-12-07T00:26:29;99669.66;;;4.87;70.59
61742;BME280;47650;49.848;9.620;2022-12-07T00:28:59;99660.66;;;4.78;70.50
61742;BME280;47650;49.848;9.620;2022-12-07T00:31:30;99667.59;;;4.66;69.80
61742;BME280;47650;49.848;9.620;2022-12-07T00:33:57;99668.22;;;4.31;69.81
61742;BME280;47650;49.848;9.620;2022-12-07T00:36:24;99671.66;;;4.70;70.52
61742;BME280;47650;49.848;9.620;2022-12-07T00:38:50;99650.56;;;4.59;70.04
61742;BME280;47650;49.848;9.620;2022-12-07T00:41:17;99625.69;;;4.52;69.80
61742;BME280;47650;49.848;9.620;2022-12-07T00:43:44;99655.91;;;4.70;70.26
61742;BME280;47650;49.848;9.620;2022-12-07T00:46:11;99661.50;;;4.53;71.56
61742;BME280;47650;49.848;9.620;2022-12-07T00:48:36;99645.13;;;4.62;71.58
61742;BME280;47650;49.848;9.620;2022-12-07T00:51:03;99648.34;;;4.79;71.39
61742;BME280;47650;49.848;9.620;2022-12-07T00:53:30;99639.00;;;4.62;70.90
61742;BME280;47650;49.848;9.620;2022-12-07T00:56:06;99640.59;;;4.39;70.71
61742;BME280;47650;49.848;9.620;2022-12-07T00:58:34;99620.75;;;4.22;71.70
61742;BME280;47650;49.848;9.620;2022-12-07T01:01:00;99647.00;;;4.22;72.12
61742;BME280;47650;49.848;9.620;2022-12-07T01:03:27;99627.75;;;3.95;72.47
61742;BME280;47650;49.848;9.620;2022-12-07T01:05:58;99646.25;;;4.20;72.39
61742;BME280;47650;49.848;9.620;2022-12-07T01:08:25;99640.72;;;4.24;72.48
61742;BME280;47650;49.848;9.620;2022-12-07T01:11:04;99650.16;;;4.14;72.88
61742;BME280;47650;49.848;9.620;2022-12-07T01:13:31;99630.13;;;4.26;71.70
61742;BME280;47650;49.848;9.620;2022-12-07T01:15:59;99645.97;;;4.37;73.10
61742;BME280;47650;49.848;9.620;2022-12-07T01:18:28;99610.16;;;4.23;72.18
61742;BME280;47650;49.848;9.620;2022-12-07T01:21:12;99636.41;;;4.36;72.51
61742;BME280;47650;49.848;9.620;2022-12-07T01:23:39;99637.84;;;4.53;71.85
61742;BME280;47650;49.848;9.620;2022-12-07T01:26:07;99634.16;;;4.68;71.24
61742;BME280;47650;49.848;9.620;2022-12-07T01:28:33;99608.47;;;4.61;70.78
61742;BME280;47650;49.848;9.620;2022-12-07T01:31:06;99592.81;;;4.46;70.80
61742;BME280;47650;49.848;9.620;2022-12-07T01:33:35;99602.50;;;4.33;71.74
61742;BME280;47650;49.848;9.620;2022-12-07T01:36:05;99636.50;;;4.60;71.67
61742;BME280;47650;49.848;9.620;2022-12-07T01:38:31;99638.72;;;4.41;72.25
61742;BME280;47650;49.848;9.620;2022-12-07T01:41:00;99649.53;;;4.36;72.73
61742;BME280;47650;49.848;9.620;2022-12-07T01:43:28;99648.69;;;4.61;72.60
61742;BME280;47650;49.848;9.620;2022-12-07T01:45:54;99622.63;;;4.32;72.91
61742;BME280;47650;49.848;9.620;2022-12-07T01:48:25;99653.19;;;4.46;72.76
61742;BME280;47650;49.848;9.620;2022-12-07T01:50:53;99640.28;;;4.69;72.18
61742;BME280;47650;49.848;9.620;2022-12-07T01:53:21;99644.06;;;4.65;72.14
61742;BME280;47650;49.848;9.620;2022-12-07T01:55:52;99648.88;;;4.58;71.86
61742;BME280;47650;49.848;9.620;2022-12-07T01:58:18;99636.94;;;4.54;72.56
61742;BME280;47650;49.848;9.620;2022-12-07T02:00:43;99629.78;;;4.56;72.67
61742;BME280;47650;49.848;9.620;2022-12-07T02:03:29;99609.63;;;4.44;72.44
61742;BME280;47650;49.848;9.620;2022-12-07T02:06:21;99632.72;;;4.39;73.39
61742;BME280;47650;49.848;9.620;2022-12-07T02:08:47;99622.66;;;4.20;74.17
61742;BME280;47650;49.848;9.620;2022-12-07T02:11:14;99620.84;;;4.46;73.40
61742;BME280;47650;49.848;9.620;2022-12-07T02:13:41;99591.13;;;4.32;73.52
61742;BME280;47650;49.848;9.620;2022-12-07T02:16:29;99614.91;;;4.31;73.30
61742;BME280;47650;49.848;9.620;2022-12-07T02:22:01;99610.25;;;4.22;74.49
61742;BME280;47650;49.848;9.620;2022-12-07T02:27:19;99612.38;;;4.29;74.54
61742;BME280;47650;49.848;9.620;2022-12-07T02:32:46;99616.34;;;4.61;73.11
61742;BME280;47650;49.848;9.620;2022-12-07T02:35:20;99602.38;;;4.47;73.60
61742;BME280;47650;49.848;9.620;2022-12-07T02:38:08;99608.63;;;4.70;73.02
61742;BME280;47650;49.848;9.620;2022-12-07T02:43:18;99595.56;;;4.45;72.76
61742;BME280;47650;49.848;9.620;2022-12-07T02:45:47;99593.28;;;4.27;73.37
61742;BME280;47650;49.848;9.620;2022-12-07T02:48:19;99599.97;;;4.44;73.71
61742;BME280;47650;49.848;9.620;2022-12-07T02:50:49;99580.88;;;4.17;73.71
61742;BME280;47650;49.848;9.620;2022-12-07T02:53:37;99605.63;;;4.25;73.07
61742;BME280;47650;49.848;9.620;2022-12-07T03:04:53;99594.28;;;4.50;72.28
61742;BME280;47650;49.848;9.620;2022-12-07T03:07:42;99601.41;;;4.61;72.01
61742;BME280;47650;49.848;9.620;2022-12-07T03:11:04;99590.72;;;4.39;71.95
61742;BME280;47650;49.848;9.620;2022-12-07T03:18:28;99590.28;;;4.58;72.50
61742;BME280;47650;49.848;9.620;2022-12-07T03:21:02;99588.03;;;4.77;72.14
61742;BME280;47650;49.848;9.620;2022-12-07T03:23:31;99597.50;;;4.67;71.86
61742;BME280;47650;49.848;9.620;2022-12-07T03:26:00;99568.69;;;4.28;72.20
61742;BME280;47650;49.848;9.620;2022-12-07T03:28:31;99583.59;;;4.54;72.42
61742;BME280;47650;49.848;9.620;2022-12-07T03:33:33;99583.47;;;4.55;73.88
61742;BME280;47650;49.848;9.620;2022-12-07T03:36:12;99584.53;;;4.40;73.21
61742;BME280;47650;49.848;9.620;2022-12-07T03:39:13;99577.84;;;4.23;74.26
61742;BME280;47650;49.848;9.620;2022-12-07T03:41:42;99573.84;;;4.04;74.42
61742;BME280;47650;49.848;9.620;2022-12-07T03:44:08;99577.09;;;4.33;74.37
61742;BME280;47650;49.848;9.620;2022-12-07T03:47:00;99578.34;;;3.89;75.19
61742;BME280;47650;49.848;9.620;2022-12-07T03:49:36;99576.75;;;4.25;75.31
61742;BME280;47650;49.848;9.620;2022-12-07T03:54:46;99582.13;;;3.98;75.13
61742;BME280;47650;49.848;9.620;2022-12-07T03:57:13;99568.69;;;4.28;74.22
61742;BME280;47650;49.848;9.620;2022-12-07T03:59:41;99567.03;;;4.02;74.63
61742;BME280;47650;49.848;9.620;2022-12-07T04:02:11;99526.94;;;3.87;74.73
61742;BME280;47650;49.848;9.620;2022-12-07T04:04:37;99570.56;;;4.13;74.13
61742;BME280;47650;49.848;9.620;2022-12-07T04:07:04;99570.34;;;3.91;74.12
61742;BME280;47650;49.848;9.620;2022-12-07T04:09:30;99576.56;;;4.03;74.40
61742;BME280;47650;49.848;9.620;2022-12-07T04:11:55;99584.53;;;3.88;74.59
61742;BME280;47650;49.848;9.620;2022-12-07T04:14:20;99577.69;;;3.73;75.16
61742;BME280;47650;49.848;9.620;2022-12-07T04:16:56;99565.13;;;4.29;74.28
61742;BME280;47650;49.848;9.620;2022-12-07T04:19:24;99578.75;;;3.96;75.36
61742;BME280;47650;49.848;9.620;2022-12-07T04:21:50;99559.69;;;4.07;74.07
61742;BME280;47650;49.848;9.620;2022-12-07T04:24:16;99573.31;;;4.25;73.60
61742;BME280;47650;49.848;9.620;2022-12-07T04:26:43;99568.06;;;4.12;72.73
61742;BME280;47650;49.848;9.620;2022-12-07T04:29:09;99569.13;;;4.22;73.92
61742;BME280;47650;49.848;9.620;2022-12-07T04:31:35;99567.50;;;4.32;73.07
61742;BME280;47650;49.848;9.620;2022-12-07T04:34:01;99565.53;;;4.23;73.71
61742;BME280;47650;49.848;9.620;2022-12-07T04:36:28;99567.63;;;4.18;73.20
61742;BME280;47650;49.848;9.620;2022-12-07T04:38:54;99567.94;;;4.52;72.64
61742;BME280;47650;49.848;9.620;2022-12-07T04:43:47;99563.66;;;4.25;72.55
61742;BME280;47650;49.848;9.620;2022-12-07T04:46:13;99544.84;;;3.67;74.39
61742;BME280;47650;49.848;9.620;2022-12-07T04:48:38;99558.50;;;4.24;73.82
61742;BME280;47650;49.848;9.620;2022-12-07T04:51:04;99573.72;;;4.19;74.52
61742;BME280;47650;49.848;9.620;2022-12-07T04:53:29;99574.75;;;4.55;73.62
61742;BME280;47650;49.848;9.620;2022-12-07T04:55:54;99565.75;;;4.33;75.06
61742;BME280;47650;49.848;9.620;2022-12-07T04:58:19;99569.75;;;4.13;74.73
61742;BME280;47650;49.848;9.620;2022-12-07T05:00:45;99564.72;;;3.84;76.07
61742;BME280;47650;49.848;9.620;2022-12-07T05:03:10;99567.19;;;3.73;77.52
61742;BME280;47650;49.848;9.620;2022-12-07T05:05:35;99573.47;;;3.57;77.32
61742;BME280;47650;49.848;9.620;2022-12-07T05:08:00;99548.31;;;3.55;77.58
61742;BME280;47650;49.848;9.620;2022-12-07T05:10:26;99573.00;;;3.38;79.04
61742;BME280;47650;49.848;9.620;2022-12-07T05:12:52;99557.88;;;3.29;79.28
61742;BME280;47650;49.848;9.620;2022-12-07T05:15:17;99580.41;;;3.58;79.47
61742;BME280;47650;49.848;9.620;2022-12-07T05:17:43;99571.13;;;3.93;78.29
61742;BME280;47650;49.848;9.620;2022-12-07T05:20:11;99571.97;;;4.19;77.48
61742;BME280;47650;49.848;9.620;2022-12-07T05:22:36;99573.53;;;4.35;76.13
61742;BME280;47650;49.848;9.620;2022-12-07T05:25:02;99542.56;;;4.01;76.34
61742;BME280;47650;49.848;9.620;2022-12-07T05:27:27;99576.53;;;4.54;75.92
61742;BME280;47650;49.848;9.620;2022-12-07T05:29:52;99555.63;;;4.52;75.72
61742;BME280;47650;49.848;9.620;2022-12-07T05:32:19;99566.84;;;4.67;74.59
61742;BME280;47650;49.848;9.620;2022-12-07T05:34:46;99524.16;;;4.40;73.96
61742;BME280;47650;49.848;9.620;2022-12-07T05:37:17;99564.66;;;4.61;73.99
61742;BME280;47650;49.848;9.620;2022-12-07T05:39:42;99562.16;;;4.47;74.26
61742;BME280;47650;49.848;9.620;2022-12-07T05:42:10;99538.84;;;4.55;74.03
61742;BME280;47650;49.848;9.620;2022-12-07T05:44:40;99571.13;;;4.68;74.66
61742;BME280;47650;49.848;9.620;2022-12-07T05:47:08;99567.13;;;4.76;74.38
61742;BME280;47650;49.848;9.620;2022-12-07T05:49:35;99564.75;;;4.60;73.96
61742;BME280;47650;49.848;9.620;2022-12-07T05:52:00;99566.75;;;4.56;74.36
61742;BME280;47650;49.848;9.620;2022-12-07T05:54:26;99565.69;;;4.71;73.50
61742;BME280;47650;49.848;9.620;2022-12-07T05:56:51;99565.25;;;4.78;73.94
61742;BME280;47650;49.848;9.620;2022-12-07T05:59:16;99570.72;;;4.62;72.90
61742;BME280;47650;49.848;9.620;2022-12-07T06:02:00;99573.91;;;4.54;73.86
61742;BME280;47650;49.848;9.620;2022-12-07T06:04:31;99576.88;;;4.37;73.63
61742;BME280;47650;49.848;9.620;2022-12-07T06:06:59;99547.69;;;3.77;76.32
61742;BME280;47650;49.848;9.620;2022-12-07T06:09:27;99567.00;;;4.40;75.46
61742;BME280;47650;49.848;9.620;2022-12-07T06:11:59;99566.50;;;4.22;75.21
61742;BME280;47650;49.848;9.620;2022-12-07T06:14:43;99544.47;;;4.12;75.32
61742;BME280;47650;49.848;9.620;2022-12-07T06:17:09;99535.63;;;4.13;75.53
61742;BME280;47650;49.848;9.620;2022-12-07T06:19:36;99510.31;;;3.08;78.08
61742;BME280;47650;49.848;9.620;2022-12-07T06:22:02;99539.72;;;3.66;76.81
61742;BME280;47650;49.848;9.620;2022-12-07T06:24:32;99561.84;;;3.62;78.55
61742;BME280;47650;49.848;9.620;2022-12-07T06:26:57;99547.69;;;3.77;78.34
61742;BME280;47650;49.848;9.620;2022-12-07T06:29:30;99528.56;;;3.49;77.65
61742;BME280;47650;49.848;9.620;2022-12-07T06:31:57;99553.38;;;4.22;76.14
61742;BME280;47650;49.848;9.620;2022-12-07T06:34:23;99556.28;;;4.05;76.18
61742;BME280;47650;49.848;9.620;2022-12-07T06:36:50;99551.06;;;4.18;76.30
61742;BME280;47650;49.848;9.620;2022-12-07T06:39:22;99524.38;;;4.37;74.96
61742;BME280;47650;49.848;9.620;2022-12-07T06:41:51;99558.06;;;4.56;74.68
61742;BME280;47650;49.848;9.620;2022-12-07T06:44:17;99558.19;;;4.03;76.35
61742;BME280;47650;49.848;9.620;2022-12-07T06:46:49;99529.97;;;3.93;76.45
61742;BME280;47650;49.848;9.620;2022-12-07T06:49:14;99570.16;;;4.20;75.44
61742;BME280;47650;49.848;9.620;2022-12-07T06:51:40;99565.34;;;3.88;76.72
61742;BME280;47650;49.848;9.620;2022-12-07T06:54:12;99572.69;;;3.95;76.77
61742;BME280;47650;49.848;9.620;2022-12-07T06:56:40;99564.31;;;4.03;76.08
61742;BME280;47650;49.848;9.620;2022-12-07T06:59:06;99572.78;;;3.81;77.23
61742;BME280;47650;49.848;9.620;2022-12-07T07:01:41;99572.47;;;4.50;75.46
61742;BME280;47650;49.848;9.620;2022-12-07T07:04:14;99552.63;;;4.33;76.61
61742;BME280;47650;49.848;9.620;2022-12-07T07:06:39;99569.47;;;4.67;75.31
61742;BME280;47650;49.848;9.620;2022-12-07T07:09:05;99535.75;;;4.24;74.97
61742;BME280;47650;49.848;9.620;2022-12-07T07:11:37;99556.53;;;4.27;75.63
61742;BME280;47650;49.848;9.620;2022-12-07T07:14:02;99560.44;;;4.71;74.34
61742;BME280;47650;49.848;9.620;2022-12-07T07:16:29;99573.00;;;4.17;75.97
61742;BME280;47650;49.848;9.620;2022-12-07T07:18:56;99570.22;;;4.69;74.96
61742;BME280;47650;49.848;9.620;2022-12-07T07:21:23;99571.63;;;4.86;74.02
61742;BME280;47650;49.848;9.620;2022-12-07T07:23:48;99571.19;;;5.17;72.84
61742;BME280;47650;49.848;9.620;2022-12-07T07:26:14;99531.06;;;5.15;72.52
61742;BME280;47650;49.848;9.620;2022-12-07T07:28:39;99568.75;;;4.89;72.14
61742;BME280;47650;49.848;9.620;2022-12-07T07:31:05;99566.91;;;5.40;72.48
61742;BME280;47650;49.848;9.620;2022-12-07T07:33:30;99573.66;;;4.83;72.53
61742;BME280;47650;49.848;9.620;2022-12-07T07:35:56;99570.09;;;4.58;74.12
61742;BME280;47650;49.848;9.620;2022-12-07T07:38:22;99523.47;;;4.12;75.19
61742;BME280;47650;49.848;9.620;2022-12-07T07:40:54;99565.75;;;4.20;76.29
61742;BME280;47650;49.848;9.620;2022-12-07T07:43:20;99568.56;;;4.93;74.60
61742;BME280;47650;49.848;9.620;2022-12-07T07:45:45;99561.59;;;4.67;74.46
61742;BME280;47650;49.848;9.620;2022-12-07T07:48:10;99582.31;;;4.59;74.71
61742;BME280;47650;49.848;9.620;2022-12-07T07:50:46;99573.38;;;4.99;74.42
61742;BME280;47650;49.848;9.620;2022-12-07T07:53:15;99571.69;;;4.98;74.19
61742;BME280;47650;49.848;9.620;2022-12-07T07:55:40;99576.78;;;4.88;75.00
61742;BME280;47650;49.848;9.620;2022-12-07T07:58:05;99574.63;;;4.69;75.03
61742;BME280;47650;49.848;9.620;2022-12-07T08:00:30;99570.69;;;5.12;74.10
61742;BME280;47650;49.848;9.620;2022-12-07T08:02:56;99569.69;;;5.01;74.07
61742;BME280;47650;49.848;9.620;2022-12-07T08:05:23;99571.50;;;5.36;72.86
61742;BME280;47650;49.848;9.620;2022-12-07T08:07:55;99557.63;;;4.49;74.20
61742;BME280;47650;49.848;9.620;2022-12-07T08:10:20;99567.16;;;4.63;75.34
61742;BME280;47650;49.848;9.620;2022-12-07T08:12:45;99580.75;;;4.94;74.68
61742;BME280;47650;49.848;9.620;2022-12-07T08:15:30;99577.41;;;4.79;74.97
61742;BME280;47650;49.848;9.620;2022-12-07T08:17:57;99581.06;;;4.52;75.40
61742;BME280;47650;49.848;9.620;2022-12-07T08:20:23;99579.75;;;4.70;75.67
61742;BME280;47650;49.848;9.620;2022-12-07T08:22:49;99579.47;;;4.62;75.85
61742;BME280;47650;49.848;9.620;2022-12-07T08:25:15;99583.53;;;4.66;75.93
61742;BME280;47650;49.848;9.620;2022-12-07T08:27:41;99580.03;;;5.16;74.88
61742;BME280;47650;49.848;9.620;2022-12-07T08:30:08;99579.66;;;5.33;72.90
61742;BME280;47650;49.848;9.620;2022-12-07T08:32:35;99582.47;;;5.54;72.09
61742;BME280;47650;49.848;9.620;2022-12-07T08:35:00;99588.63;;;4.94;73.47
61742;BME280;47650;49.848;9.620;2022-12-07T08:37:25;99586.56;;;5.10;74.91
61742;BME280;47650;49.848;9.620;2022-12-07T08:39:51;99586.75;;;5.20;73.40
61742;BME280;47650;49.848;9.620;2022-12-07T08:42:16;99585.34;;;5.03;74.70
61742;BME280;47650;49.848;9.620;2022-12-07T08:44:42;99577.56;;;5.01;74.33
61742;BME280;47650;49.848;9.620;2022-12-07T08:47:07;99592.00;;;5.20;74.30
61742;BME280;47650;49.848;9.620;2022-12-07T08:49:43;99594.03;;;5.40;72.93
61742;BME280;47650;49.848;9.620;2022-12-07T08:52:11;99593.13;;;4.55;76.20
61742;BME280;47650;49.848;9.620;2022-12-07T08:54:38;99599.78;;;4.35;76.87
61742;BME280;47650;49.848;9.620;2022-12-07T08:57:05;99587.06;;;4.91;75.38
61742;BME280;47650;49.848;9.620;2022-12-07T08:59:34;99572.88;;;4.44;76.76
61742;BME280;47650;49.848;9.620;2022-12-07T09:02:00;99596.47;;;4.69;76.85
61742;BME280;47650;49.848;9.620;2022-12-07T09:04:26;99559.69;;;4.69;76.19
61742;BME280;47650;49.848;9.620;2022-12-07T09:06:51;99597.72;;;4.77;76.03
61742;BME280;47650;49.848;9.620;2022-12-07T09:09:18;99585.81;;;4.84;75.28
61742;BME280;47650;49.848;9.620;2022-12-07T09:11:44;99590.44;;;4.93;75.88
61742;BME280;47650;49.848;9.620;2022-12-07T09:14:10;99594.47;;;4.73;74.70
61742;BME280;47650;49.848;9.620;2022-12-07T09:16:35;99592.03;;;5.31;73.32
61742;BME280;47650;49.848;9.620;2022-12-07T09:19:00;99594.03;;;5.40;73.64
61742;BME280;47650;49.848;9.620;2022-12-07T09:21:26;99559.59;;;5.68;71.65
61742;BME280;47650;49.848;9.620;2022-12-07T09:23:52;99597.56;;;5.28;72.79
61742;BME280;47650;49.848;9.620;2022-12-07T09:26:19;99599.28;;;6.11;69.98
61742;BME280;47650;49.848;9.620;2022-12-07T09:28:44;99598.91;;;6.05;70.14
61742;BME280;47650;49.848;9.620;2022-12-07T09:31:09;99593.34;;;5.50;71.79
61742;BME280;47650;49.848;9.620;2022-12-07T09:33:35;99557.25;;;5.03;71.71
61742;BME280;47650;49.848;9.620;2022-12-07T09:36:00;99597.31;;;5.91;70.83
61742;BME280;47650;49.848;9.620;2022-12-07T09:38:25;99589.28;;;5.92;71.06
61742;BME280;47650;49.848;9.620;2022-12-07T09:40:54;99588.28;;;6.63;67.95
61742;BME280;47650;49.848;9.620;2022-12-07T09:43:22;99573.16;;;7.10;65.95
61742;BME280;47650;49.848;9.620;2022-12-07T09:45:51;99595.94;;;6.09;68.96
61742;BME280;47650;49.848;9.620;2022-12-07T09:48:21;99597.88;;;6.30;68.25
61742;BME280;47650;49.848;9.620;2022-12-07T09:50:48;99586.69;;;7.17;67.89
61742;BME280;47650;49.848;9.620;2022-12-07T09:53:23;99593.06;;;6.01;68.60
61742;BME280;47650;49.848;9.620;2022-12-07T09:55:49;99582.31;;;6.72;68.33
61742;BME280;47650;49.848;9.620;2022-12-07T09:58:21;99586.03;;;6.35;69.08
61742;BME280;47650;49.848;9.620;2022-12-07T10:03:51;99593.81;;;6.14;69.25
61742;BME280;47650;49.848;9.620;2022-12-07T10:06:18;99590.19;;;6.15;70.18
61742;BME280;47650;49.848;9.620;2022-12-07T10:08:43;99586.34;;;5.61;70.24
61742;BME280;47650;49.848;9.620;2022-12-07T10:11:10;99585.34;;;5.87;70.12
61742;BME280;47650;49.848;9.620;2022-12-07T10:13:39;99583.28;;;6.14;70.37
61742;BME280;47650;49.848;9.620;2022-12-07T10:16:06;99575.28;;;5.80;70.89
61742;BME280;47650;49.848;9.620;2022-12-07T10:18:40;99596.28;;;6.05;70.21
61742;BME280;47650;49.848;9.620;2022-12-07T10:21:16;99584.50;;;5.51;72.23
61742;BME280;47650;49.848;9.620;2022-12-07T10:24:13;99580.38;;;6.06;71.27
61742;BME280;47650;49.848;9.620;2022-12-07T10:26:51;99580.09;;;5.87;72.14
61742;BME280;47650;49.848;9.620;2022-12-07T10:32:05;99583.38;;;6.13;71.00
61742;BME280;47650;49.848;9.620;2022-12-07T10:34:34;99572.97;;;6.22;70.58
61742;BME280;47650;49.848;9.620;2022-12-07T10:39:49;99561.38;;;6.25;69.92
61742;BME280;47650;49.848;9.620;2022-12-07T10:42:32;99571.00;;;5.91;70.75
61742;BME280;47650;49.848;9.620;2022-12-07T10:45:17;99565.94;;;6.23;69.33
61742;BME280;47650;49.848;9.620;2022-12-07T10:55:43;99545.22;;;7.40;66.16
61742;BME280;47650;49.848;9.620;2022-12-07T11:12:27;99530.00;;;7.11;66.83
61742;BME280;47650;49.848;9.620;2022-12-07T11:15:24;99532.69;;;6.88;67.13
61742;BME280;47650;49.848;9.620;2022-12-07T11:21:29;99520.41;;;6.66;67.98
61742;BME280;47650;49.848;9.620;2022-12-07T11:24:10;99520.50;;;6.76;67.36
61742;BME280;47650;49.848;9.620;2022-12-07T11:29:40;99512.16;;;7.78;63.32
61742;BME280;47650;49.848;9.620;2022-12-07T11:32:17;99506.56;;;8.23;61.99
61742;BME280;47650;49.848;9.620;2022-12-07T11:37:37;99496.75;;;9.34;57.96
61742;BME280;47650;49.848;9.620;2022-12-07T11:40:04;99500.09;;;8.77;59.50
61742;BME280;47650;49.848;9.620;2022-12-07T11:42:39;99488.31;;;8.51;59.85
61742;BME280;47650;49.848;9.620;2022-12-07T11:45:20;99488.16;;;9.12;58.39
61742;BME280;47650;49.848;9.620;2022-12-07T11:47:53;99485.06;;;9.27;58.84
61742;BME280;47650;49.848;9.620;2022-12-07T11:50:32;99483.38;;;8.77;59.02
61742;BME280;47650;49.848;9.620;2022-12-07T11:53:15;99500.94;;;7.55;61.46
61742;BME280;47650;49.848;9.620;2022-12-07T11:58:44;99490.53;;;7.42;63.79
61742;BME280;47650;49.848;9.620;2022-12-07T12:06:42;99461.06;;;6.83;63.25
61742;BME280;47650;49.848;9.620;2022-12-07T12:17:39;99470.31;;;6.00;65.68
61742;BME280;47650;49.848;9.620;2022-12-07T12:20:31;99479.19;;;5.99;67.02
61742;BME280;47650;49.848;9.620;2022-12-07T12:23:35;99475.09;;;6.29;66.14
61742;BME280;47650;49.848;9.620;2022-12-07T12:26:04;99474.34;;;5.93;67.31
61742;BME280;47650;49.848;9.620;2022-12-07T12:28:40;99446.59;;;5.77;67.86
61742;BME280;47650;49.848;9.620;2022-12-07T12:31:09;99465.91;;;6.00;67.09
61742;BME280;47650;49.848;9.620;2022-12-07T12:33:35;99446.06;;;5.38;69.34
61742;BME280;47650;49.848;9.620;2022-12-07T12:36:18;99466.50;;;6.04;68.11
61742;BME280;47650;49.848;9.620;2022-12-07T12:46:58;99454.59;;;6.87;65.43
61742;BME280;47650;49.848;9.620;2022-12-07T12:52:00;99435.09;;;6.46;67.10
61742;BME280;47650;49.848;9.620;2022-12-07T12:54:31;99448.06;;;7.03;65.70
61742;BME280;47650;49.848;9.620;2022-12-07T12:59:39;99452.91;;;7.19;65.19
61742;BME280;47650;49.848;9.620;2022-12-07T13:02:09;99438.84;;;6.97;65.83
61742;BME280;47650;49.848;9.620;2022-12-07T13:04:48;99444.44;;;6.39;66.86
61742;BME280;47650;49.848;9.620;2022-12-07T13:07:54;99434.69;;;6.94;65.90
61742;BME280;47650;49.848;9.620;2022-12-07T13:13:00;99426.22;;;6.47;66.55
61742;BME280;47650;49.848;9.620;2022-12-07T13:15:37;99422.53;;;6.82;65.88
61742;BME280;47650;49.848;9.620;2022-12-07T13:29:17;99424.59;;;7.00;64.73
61742;BME280;47650;49.848;9.620;2022-12-07T13:32:03;99429.91;;;6.56;65.42
61742;BME280;47650;49.848;9.620;2022-12-07T13:34:39;99434.19;;;6.13;66.93
61742;BME280;47650;49.848;9.620;2022-12-07T13:39:49;99416.13;;;5.97;66.72
61742;BME280;47650;49.848;9.620;2022-12-07T13:44:52;99415.44;;;6.50;65.21
61742;BME280;47650;49.848;9.620;2022-12-07T13:47:28;99427.06;;;6.48;65.92
61742;BME280;47650;49.848;9.620;2022-12-07T13:49:56;99429.19;;;6.54;66.73
61742;BME280;47650;49.848;9.620;2022-12-07T13:52:26;99430.22;;;6.63;66.57
61742;BME280;47650;49.848;9.620;2022-12-07T13:57:24;99429.56;;;6.82;65.17
61742;BME280;47650;49.848;9.620;2022-12-07T13:59:51;99413.97;;;7.11;63.41
61742;BME280;47650;49.848;9.620;2022-12-07T14:02:22;99419.97;;;6.59;63.96
61742;BME280;47650;49.848;9.620;2022-12-07T14:04:50;99412.13;;;6.26;65.70
61742;BME280;47650;49.848;9.620;2022-12-07T14:07:22;99420.03;;;6.37;65.66
61742;BME280;47650;49.848;9.620;2022-12-07T14:09:56;99424.72;;;6.66;65.04
61742;BME280;47650;49.848;9.620;2022-12-07T14:12:22;99428.00;;;6.58;64.96
61742;BME280;47650;49.848;9.620;2022-12-07T14:14:48;99425.31;;;6.69;65.33
61742;BME280;47650;49.848;9.620;2022-12-07T14:17:17;99422.22;;;6.64;65.15
61742;BME280;47650;49.848;9.620;2022-12-07T14:19:55;99418.44;;;6.78;64.85
61742;BME280;47650;49.848;9.620;2022-12-07T14:22:24;99419.38;;;6.56;65.24
61742;BME280;47650;49.848;9.620;2022-12-07T14:24:50;99412.53;;;6.10;65.44
61742;BME280;47650;49.848;9.620;2022-12-07T14:27:21;99409.91;;;6.65;65.18
61742;BME280;47650;49.848;9.620;2022-12-07T14:29:48;99385.50;;;6.84;64.34
61742;BME280;47650;49.848;9.620;2022-12-07T14:32:24;99415.03;;;6.11;66.83
61742;BME280;47650;49.848;9.620;2022-12-07T14:35:13;99412.34;;;6.77;64.77
61742;BME280;47650;49.848;9.620;2022-12-07T14:37:41;99394.81;;;6.88;65.46
61742;BME280;47650;49.848;9.620;2022-12-07T14:40:07;99397.53;;;6.97;64.27
61742;BME280;47650;49.848;9.620;2022-12-07T14:42:34;99345.09;;;6.30;64.92
61742;BME280;47650;49.848;9.620;2022-12-07T14:45:00;99398.28;;;6.12;66.53
61742;BME280;47650;49.848;9.620;2022-12-07T14:47:27;99399.97;;;6.13;66.62
61742;BME280;47650;49.848;9.620;2022-12-07T14:49:52;99393.97;;;6.11;66.94
61742;BME280;47650;49.848;9.620;2022-12-07T14:52:26;99407.03;;;5.90;67.51
61742;BME280;47650;49.848;9.620;2022-12-07T14:54:54;99403.81;;;6.09;66.87
61742;BME280;47650;49.848;9.620;2022-12-07T14:57:19;99405.94;;;5.81;67.42
61742;BME280;47650;49.848;9.620;2022-12-07T14:59:45;99402.34;;;6.05;67.05
61742;BME280;47650;49.848;9.620;2022-12-07T15:02:11;99405.34;;;5.67;67.87
61742;BME280;47650;49.848;9.620;2022-12-07T15:04:39;99393.25;;;5.64;68.71
61742;BME280;47650;49.848;9.620;2022-12-07T15:07:08;99398.47;;;5.30;69.75
61742;BME280;47650;49.848;9.620;2022-12-07T15:09:34;99393.84;;;5.79;69.31
61742;BME280;47650;49.848;9.620;2022-12-07T15:12:00;99397.56;;;6.10;68.02
61742;BME280;47650;49.848;9.620;2022-12-07T15:14:25;99397.72;;;5.97;68.43
61742;BME280;47650;49.848;9.620;2022-12-07T15:16:51;99404.72;;;5.40;69.97
61742;BME280;47650;49.848;9.620;2022-12-07T15:19:23;99402.47;;;5.70;69.17
61742;BME280;47650;49.848;9.620;2022-12-07T15:21:52;99409.63;;;5.79;68.51
61742;BME280;47650;49.848;9.620;2022-12-07T15:24:17;99411.84;;;5.27;70.14
61742;BME280;47650;49.848;9.620;2022-12-07T15:26:43;99417.88;;;5.05;70.50
61742;BME280;47650;49.848;9.620;2022-12-07T15:29:10;99430.78;;;5.43;71.16